Wetterdaten: Woche 10.08.15 - 16.08.15 (KW33)
Datum Zeit Temperatur Luftfeuchte Luftdruck Niederschlag Windrichtung Sonnenschein Solar Wind
10.08.2015 00:00 18,4 C 97 % 1013,7 hPa 0,4 l/m W 0,00 h 0 W/m 13,5 km/h (3 Bft)
10.08.2015 01:00 18,2 C 98 % 1012,5 hPa 0,2 l/m W-SW 0,00 h 0 W/m 5,3 km/h (1 Bft)
10.08.2015 02:00 18,0 C 98 % 1012,2 hPa 0,0 l/m W 0,00 h 0 W/m 4,3 km/h (1 Bft)
10.08.2015 03:00 17,8 C 98 % 1011,7 hPa 0,2 l/m W 0,00 h 0 W/m 2,4 km/h (1 Bft)
10.08.2015 04:00 17,8 C 98 % 1011,8 hPa 0,0 l/m W 0,00 h 0 W/m 1,3 km/h (1 Bft)
10.08.2015 05:00 17,8 C 99 % 1012,1 hPa 0,0 l/m W-SW 0,00 h 0 W/m 5,5 km/h (1 Bft)
10.08.2015 06:00 17,9 C 99 % 1012,3 hPa 0,0 l/m N 0,08 h 12 W/m 0,9 km/h (0 Bft)
10.08.2015 07:00 18,2 C 99 % 1012,2 hPa 0,0 l/m N 0,00 h 44 W/m 1,1 km/h (0 Bft)
10.08.2015 08:00 18,8 C 99 % 1012,2 hPa 0,0 l/m N 0,00 h 88 W/m 0,3 km/h (0 Bft)
10.08.2015 09:00 19,5 C 97 % 1012,1 hPa 0,0 l/m N 0,08 h 114 W/m 0,4 km/h (0 Bft)
10.08.2015 10:00 20,0 C 95 % 1012,1 hPa 0,0 l/m W-SW 0,00 h 124 W/m 1,2 km/h (1 Bft)
10.08.2015 11:00 20,5 C 92 % 1012,0 hPa 0,0 l/m W-SW 0,00 h 154 W/m 1,7 km/h (1 Bft)
10.08.2015 12:00 21,4 C 87 % 1011,7 hPa 0,0 l/m W-SW 0,00 h 237 W/m 5,2 km/h (1 Bft)
10.08.2015 13:00 22,7 C 81 % 1011,4 hPa 0,0 l/m N-NW 0,17 h 331 W/m 10,8 km/h (2 Bft)
10.08.2015 14:00 23,9 C 77 % 1011,3 hPa 0,0 l/m N-NO 0,75 h 715 W/m 13,3 km/h (3 Bft)
10.08.2015 15:00 25,0 C 71 % 1011,3 hPa 0,0 l/m N 0,83 h 659 W/m 11,7 km/h (2 Bft)
10.08.2015 16:00 25,5 C 68 % 1010,9 hPa 0,0 l/m N-NO 0,92 h 595 W/m 13,7 km/h (3 Bft)
10.08.2015 17:00 25,8 C 68 % 1010,9 hPa 0,0 l/m N-NO 0,83 h 431 W/m 10,5 km/h (2 Bft)
10.08.2015 18:00 25,6 C 68 % 1010,5 hPa 0,0 l/m N-NO 1,00 h 288 W/m 10,5 km/h (2 Bft)
10.08.2015 19:00 24,8 C 71 % 1010,5 hPa 0,0 l/m N-NO 0,58 h 107 W/m 8,3 km/h (2 Bft)
10.08.2015 20:00 23,1 C 78 % 1010,9 hPa 0,0 l/m N-NO 0,00 h 17 W/m 3,2 km/h (1 Bft)
10.08.2015 21:00 21,4 C 85 % 1011,3 hPa 0,0 l/m N-NO 0,00 h 0 W/m 1,7 km/h (1 Bft)
10.08.2015 22:00 21,0 C 87 % 1012,1 hPa 0,0 l/m N-NO 0,00 h 0 W/m 5,3 km/h (1 Bft)
10.08.2015 23:00 20,7 C 89 % 1011,8 hPa 0,0 l/m N-NW 0,00 h 0 W/m 7,2 km/h (2 Bft)
11.08.2015 00:00 20,3 C 91 % 1012,3 hPa 0,0 l/m N 0,00 h 0 W/m 0,4 km/h (0 Bft)
11.08.2015 01:00 20,3 C 92 % 1012,2 hPa 0,0 l/m N 0,00 h 0 W/m 0,0 km/h (0 Bft)
11.08.2015 02:00 19,9 C 92 % 1012,1 hPa 0,0 l/m S-SW 0,00 h 0 W/m 4,7 km/h (1 Bft)
11.08.2015 03:00 19,9 C 93 % 1012,4 hPa 0,0 l/m SW 0,00 h 0 W/m 1,9 km/h (1 Bft)
11.08.2015 04:00 19,8 C 93 % 1012,4 hPa 0,0 l/m N 0,00 h 0 W/m 0,9 km/h (0 Bft)
11.08.2015 05:00 19,6 C 93 % 1012,4 hPa 0,0 l/m N 0,00 h 0 W/m 0,0 km/h (0 Bft)
11.08.2015 06:00 19,4 C 93 % 1012,5 hPa 0,0 l/m W-SW 0,00 h 16 W/m 3,1 km/h (1 Bft)
11.08.2015 07:00 19,2 C 93 % 1012,7 hPa 0,0 l/m W 0,00 h 67 W/m 2,5 km/h (1 Bft)
11.08.2015 08:00 20,1 C 90 % 1013,0 hPa 0,0 l/m N 0,17 h 131 W/m 8,7 km/h (2 Bft)
11.08.2015 09:00 20,4 C 87 % 1013,3 hPa 0,0 l/m N 0,00 h 108 W/m 1,6 km/h (1 Bft)
11.08.2015 10:00 21,5 C 84 % 1013,6 hPa 0,0 l/m N 0,58 h 407 W/m 4,4 km/h (1 Bft)
11.08.2015 11:00 22,7 C 80 % 1013,6 hPa 0,0 l/m N 0,50 h 414 W/m 0,8 km/h (0 Bft)
11.08.2015 12:00 23,9 C 76 % 1013,4 hPa 0,0 l/m N-NW 0,58 h 608 W/m 4,5 km/h (1 Bft)
11.08.2015 13:00 25,4 C 69 % 1013,0 hPa 0,0 l/m N-NW 0,67 h 607 W/m 4,5 km/h (1 Bft)
11.08.2015 14:00 26,9 C 62 % 1012,7 hPa 0,0 l/m O-SO 1,00 h 768 W/m 7,9 km/h (2 Bft)
11.08.2015 15:00 27,8 C 60 % 1012,4 hPa 0,0 l/m SO 1,00 h 699 W/m 7,2 km/h (2 Bft)
11.08.2015 16:00 28,7 C 56 % 1012,0 hPa 0,0 l/m O 1,00 h 586 W/m 7,1 km/h (2 Bft)
11.08.2015 17:00 29,1 C 53 % 1011,7 hPa 0,0 l/m O-NO 1,00 h 450 W/m 6,0 km/h (2 Bft)
11.08.2015 18:00 29,1 C 52 % 1011,6 hPa 0,0 l/m NO 1,00 h 285 W/m 4,0 km/h (1 Bft)
11.08.2015 19:00 28,0 C 57 % 1011,9 hPa 0,0 l/m N-NO 0,67 h 114 W/m 10,5 km/h (2 Bft)
11.08.2015 20:00 25,6 C 67 % 1012,3 hPa 0,0 l/m N-NO 0,00 h 14 W/m 6,3 km/h (2 Bft)
11.08.2015 21:00 23,1 C 78 % 1013,1 hPa 0,0 l/m N-NO 0,00 h 0 W/m 4,0 km/h (1 Bft)
11.08.2015 22:00 22,0 C 81 % 1013,7 hPa 0,0 l/m N-NO 0,00 h 0 W/m 4,8 km/h (1 Bft)
11.08.2015 23:00 21,3 C 83 % 1014,0 hPa 0,0 l/m N-NO 0,00 h 0 W/m 4,1 km/h (1 Bft)
12.08.2015 00:00 20,5 C 86 % 1014,2 hPa 0,0 l/m N 0,00 h 0 W/m 0,4 km/h (0 Bft)
12.08.2015 01:00 19,6 C 89 % 1014,3 hPa 0,0 l/m N-NO 0,00 h 0 W/m 1,7 km/h (1 Bft)
12.08.2015 02:00 19,2 C 90 % 1014,3 hPa 0,0 l/m N-NO 0,00 h 0 W/m 3,2 km/h (1 Bft)
12.08.2015 03:00 19,0 C 89 % 1014,2 hPa 0,0 l/m N-NO 0,00 h 0 W/m 2,5 km/h (1 Bft)
12.08.2015 04:00 18,0 C 92 % 1014,5 hPa 0,0 l/m N 0,00 h 0 W/m 0,3 km/h (0 Bft)
12.08.2015 05:00 17,1 C 95 % 1014,7 hPa 0,0 l/m N 0,00 h 0 W/m 0,0 km/h (0 Bft)
12.08.2015 06:00 16,7 C 97 % 1015,1 hPa 0,0 l/m N 0,00 h 14 W/m 0,0 km/h (0 Bft)
12.08.2015 07:00 17,8 C 97 % 1015,4 hPa 0,0 l/m N 0,00 h 85 W/m 0,3 km/h (0 Bft)
12.08.2015 08:00 19,6 C 91 % 1016,0 hPa 0,0 l/m N 0,92 h 232 W/m 0,0 km/h (0 Bft)
12.08.2015 09:00 22,5 C 82 % 1016,2 hPa 0,0 l/m N 1,00 h 395 W/m 0,0 km/h (0 Bft)
12.08.2015 10:00 24,1 C 78 % 1016,2 hPa 0,0 l/m N-NO 1,00 h 556 W/m 4,4 km/h (1 Bft)
12.08.2015 11:00 25,8 C 72 % 1016,1 hPa 0,0 l/m N-NO 1,00 h 678 W/m 3,1 km/h (1 Bft)
12.08.2015 12:00 27,7 C 60 % 1015,8 hPa 0,0 l/m N-NO 1,00 h 759 W/m 1,3 km/h (1 Bft)
12.08.2015 13:00 29,4 C 49 % 1015,6 hPa 0,0 l/m NO 1,00 h 826 W/m 8,3 km/h (2 Bft)
12.08.2015 14:00 30,3 C 44 % 1015,2 hPa 0,0 l/m O-NO 0,92 h 610 W/m 11,7 km/h (2 Bft)
12.08.2015 15:00 30,7 C 41 % 1014,9 hPa 0,0 l/m O 1,00 h 675 W/m 9,9 km/h (2 Bft)
12.08.2015 16:00 29,6 C 46 % 1014,6 hPa 0,0 l/m O 0,00 h 227 W/m 5,2 km/h (1 Bft)
12.08.2015 17:00 28,4 C 56 % 1014,7 hPa 0,0 l/m N 0,42 h 303 W/m 1,7 km/h (1 Bft)
12.08.2015 18:00 29,0 C 48 % 1014,4 hPa 0,0 l/m N-NO 0,50 h 203 W/m 1,1 km/h (0 Bft)
12.08.2015 19:00 25,7 C 62 % 1014,3 hPa 0,0 l/m N 0,00 h 35 W/m 0,0 km/h (0 Bft)
12.08.2015 20:00 24,5 C 65 % 1014,5 hPa 0,0 l/m N 0,08 h 16 W/m 0,0 km/h (0 Bft)
12.08.2015 21:00 23,4 C 69 % 1014,9 hPa 0,0 l/m N 0,00 h 0 W/m 0,0 km/h (0 Bft)
12.08.2015 22:00 21,9 C 74 % 1014,9 hPa 0,0 l/m N 0,00 h 0 W/m 0,0 km/h (0 Bft)
12.08.2015 23:00 20,9 C 77 % 1014,8 hPa 0,0 l/m N 0,00 h 0 W/m 0,0 km/h (0 Bft)
13.08.2015 00:00 20,0 C 79 % 1014,7 hPa 0,0 l/m N-NO 0,00 h 0 W/m 1,5 km/h (1 Bft)
13.08.2015 01:00 19,4 C 81 % 1014,4 hPa 0,0 l/m N 0,00 h 0 W/m 0,0 km/h (0 Bft)
13.08.2015 02:00 18,8 C 83 % 1013,8 hPa 0,0 l/m N 0,00 h 0 W/m 0,0 km/h (0 Bft)
13.08.2015 03:00 18,0 C 85 % 1013,3 hPa 0,0 l/m N 0,00 h 0 W/m 0,1 km/h (0 Bft)
13.08.2015 04:00 17,6 C 88 % 1013,0 hPa 0,0 l/m N-NO 0,00 h 0 W/m 0,8 km/h (0 Bft)
13.08.2015 05:00 17,0 C 88 % 1013,1 hPa 0,0 l/m N 0,00 h 0 W/m 0,0 km/h (0 Bft)
13.08.2015 06:00 16,2 C 89 % 1013,0 hPa 0,0 l/m N 0,00 h 14 W/m 0,0 km/h (0 Bft)
13.08.2015 07:00 17,3 C 91 % 1012,9 hPa 0,0 l/m N 0,08 h 90 W/m 0,0 km/h (0 Bft)
13.08.2015 08:00 20,2 C 83 % 1012,6 hPa 0,0 l/m N-NO 1,00 h 250 W/m 1,3 km/h (1 Bft)
13.08.2015 09:00 22,5 C 74 % 1012,2 hPa 0,0 l/m N-NO 1,00 h 411 W/m 1,6 km/h (1 Bft)
13.08.2015 10:00 24,4 C 67 % 1011,9 hPa 0,0 l/m N 1,00 h 560 W/m 0,1 km/h (0 Bft)
13.08.2015 11:00 26,6 C 57 % 1011,2 hPa 0,0 l/m O 1,00 h 692 W/m 6,4 km/h (2 Bft)
13.08.2015 12:00 28,2 C 48 % 1010,8 hPa 0,0 l/m SO 1,00 h 761 W/m 6,3 km/h (2 Bft)
13.08.2015 13:00 29,2 C 46 % 1010,1 hPa 0,0 l/m O-SO 1,00 h 778 W/m 4,9 km/h (1 Bft)
13.08.2015 14:00 30,3 C 45 % 1009,3 hPa 0,0 l/m S 1,00 h 797 W/m 6,4 km/h (2 Bft)
13.08.2015 15:00 31,8 C 41 % 1008,8 hPa 0,0 l/m O 1,00 h 728 W/m 8,3 km/h (2 Bft)
13.08.2015 16:00 32,3 C 39 % 1008,1 hPa 0,0 l/m SW 1,00 h 618 W/m 5,2 km/h (1 Bft)
13.08.2015 17:00 32,5 C 37 % 1007,6 hPa 0,0 l/m SW 1,00 h 486 W/m 3,3 km/h (1 Bft)
13.08.2015 18:00 32,3 C 36 % 1006,8 hPa 0,0 l/m S-SW 1,00 h 303 W/m 5,1 km/h (1 Bft)
13.08.2015 19:00 29,5 C 53 % 1006,3 hPa 0,0 l/m N 0,58 h 97 W/m 0,5 km/h (0 Bft)
13.08.2015 20:00 25,6 C 62 % 1006,2 hPa 0,0 l/m N 0,00 h 11 W/m 0,0 km/h (0 Bft)
13.08.2015 21:00 25,0 C 62 % 1006,3 hPa 0,0 l/m S-SW 0,00 h 0 W/m 1,5 km/h (1 Bft)
13.08.2015 22:00 24,7 C 65 % 1006,9 hPa 0,0 l/m SW 0,00 h 0 W/m 18,1 km/h (3 Bft)
13.08.2015 23:00 23,4 C 68 % 1007,8 hPa 0,0 l/m SW 0,00 h 0 W/m 17,6 km/h (3 Bft)
14.08.2015 00:00 21,5 C 75 % 1008,3 hPa 0,0 l/m SW 0,00 h 0 W/m 12,5 km/h (3 Bft)
14.08.2015 01:00 20,2 C 81 % 1008,5 hPa 0,0 l/m SW 0,00 h 0 W/m 13,6 km/h (3 Bft)
14.08.2015 02:00 19,5 C 83 % 1008,6 hPa 0,0 l/m SW 0,00 h 0 W/m 11,3 km/h (2 Bft)
14.08.2015 03:00 19,0 C 84 % 1008,4 hPa 0,0 l/m W-SW 0,00 h 0 W/m 6,3 km/h (2 Bft)
14.08.2015 04:00 18,3 C 86 % 1008,2 hPa 0,0 l/m W-SW 0,00 h 0 W/m 5,2 km/h (1 Bft)
14.08.2015 05:00 17,5 C 88 % 1008,3 hPa 0,0 l/m N 0,00 h 0 W/m 0,0 km/h (0 Bft)
14.08.2015 06:00 17,0 C 90 % 1008,2 hPa 0,0 l/m N 0,58 h 28 W/m 0,0 km/h (0 Bft)
14.08.2015 07:00 17,5 C 92 % 1008,2 hPa 0,0 l/m N 0,00 h 62 W/m 0,0 km/h (0 Bft)
14.08.2015 08:00 18,4 C 90 % 1008,3 hPa 0,0 l/m W-SW 0,00 h 78 W/m 2,5 km/h (1 Bft)
14.08.2015 09:00 19,8 C 84 % 1008,0 hPa 0,0 l/m N 0,25 h 238 W/m 1,9 km/h (1 Bft)
14.08.2015 10:00 22,0 C 76 % 1007,7 hPa 0,0 l/m NW 1,00 h 550 W/m 4,5 km/h (1 Bft)
14.08.2015 11:00 23,9 C 64 % 1007,4 hPa 0,0 l/m O-NO 0,92 h 637 W/m 7,1 km/h (2 Bft)
14.08.2015 12:00 25,3 C 56 % 1006,9 hPa 0,0 l/m O-NO 0,83 h 708 W/m 5,5 km/h (1 Bft)
14.08.2015 13:00 25,6 C 55 % 1006,6 hPa 0,0 l/m N-NO 0,25 h 275 W/m 7,5 km/h (2 Bft)
14.08.2015 14:00 24,8 C 61 % 1006,2 hPa 0,0 l/m N 0,00 h 140 W/m 2,4 km/h (1 Bft)
14.08.2015 15:00 22,0 C 78 % 1006,4 hPa 3,2 l/m W-SW 0,00 h 13 W/m 10,7 km/h (2 Bft)
14.08.2015 16:00 19,7 C 90 % 1005,6 hPa 0,2 l/m S-SW 0,00 h 112 W/m 6,3 km/h (2 Bft)
14.08.2015 17:00 20,9 C 86 % 1005,4 hPa 0,0 l/m NO 0,17 h 207 W/m 5,2 km/h (1 Bft)
14.08.2015 18:00 21,1 C 87 % 1005,6 hPa 0,0 l/m SW 0,08 h 126 W/m 8,1 km/h (2 Bft)
14.08.2015 19:00 20,4 C 86 % 1006,5 hPa 0,0 l/m SW 0,00 h 20 W/m 11,3 km/h (2 Bft)
14.08.2015 20:00 19,6 C 91 % 1006,6 hPa 0,0 l/m SW 0,00 h 14 W/m 7,1 km/h (2 Bft)
14.08.2015 21:00 18,8 C 92 % 1007,1 hPa 0,0 l/m SW 0,00 h 0 W/m 4,7 km/h (1 Bft)
14.08.2015 22:00 18,2 C 91 % 1007,1 hPa 0,0 l/m SW 0,00 h 0 W/m 5,1 km/h (1 Bft)
14.08.2015 23:00 17,9 C 94 % 1007,3 hPa 0,0 l/m SW 0,00 h 0 W/m 3,2 km/h (1 Bft)
15.08.2015 00:00 17,5 C 95 % 1007,3 hPa 0,0 l/m N 0,00 h 0 W/m 0,1 km/h (0 Bft)
15.08.2015 01:00 17,1 C 96 % 1007,2 hPa 0,0 l/m SW 0,00 h 0 W/m 5,9 km/h (2 Bft)
15.08.2015 02:00 17,1 C 92 % 1007,1 hPa 0,0 l/m N 0,00 h 0 W/m 0,8 km/h (0 Bft)
15.08.2015 03:00 16,8 C 90 % 1006,9 hPa 0,0 l/m N 0,00 h 0 W/m 1,1 km/h (0 Bft)
15.08.2015 04:00 16,6 C 92 % 1006,9 hPa 0,0 l/m N 0,00 h 0 W/m 0,5 km/h (0 Bft)
15.08.2015 05:00 16,2 C 93 % 1007,2 hPa 0,0 l/m SW 0,00 h 0 W/m 3,2 km/h (1 Bft)
15.08.2015 06:00 15,9 C 94 % 1007,3 hPa 0,0 l/m SW 0,00 h 6 W/m 2,3 km/h (1 Bft)
15.08.2015 07:00 16,1 C 95 % 1007,7 hPa 0,0 l/m SW 0,00 h 22 W/m 4,1 km/h (1 Bft)
15.08.2015 08:00 16,5 C 94 % 1008,0 hPa 0,0 l/m SW 0,00 h 48 W/m 3,5 km/h (1 Bft)
15.08.2015 09:00 16,8 C 93 % 1008,2 hPa 0,0 l/m SW 0,00 h 87 W/m 3,6 km/h (1 Bft)
15.08.2015 10:00 18,6 C 83 % 1008,3 hPa 0,0 l/m W-SW 0,67 h 481 W/m 10,7 km/h (2 Bft)
15.08.2015 11:00 19,9 C 77 % 1008,2 hPa 0,0 l/m W-SW 0,33 h 437 W/m 11,2 km/h (2 Bft)
15.08.2015 12:00 20,6 C 75 % 1007,9 hPa 0,0 l/m W 0,33 h 437 W/m 11,3 km/h (2 Bft)
15.08.2015 13:00 20,4 C 75 % 1007,8 hPa 0,0 l/m W 0,00 h 214 W/m 11,4 km/h (2 Bft)
15.08.2015 14:00 20,7 C 71 % 1007,9 hPa 0,0 l/m W 0,17 h 378 W/m 17,8 km/h (3 Bft)
15.08.2015 15:00 19,1 C 76 % 1008,2 hPa 0,0 l/m W-NW 0,00 h 154 W/m 20,0 km/h (4 Bft)
15.08.2015 16:00 18,0 C 82 % 1008,6 hPa 0,0 l/m W 0,00 h 56 W/m 18,2 km/h (3 Bft)
15.08.2015 17:00 16,6 C 91 % 1009,2 hPa 5,4 l/m SW 0,00 h 32 W/m 7,6 km/h (2 Bft)
15.08.2015 18:00 16,2 C 96 % 1009,2 hPa 0,6 l/m SW 0,00 h 55 W/m 8,3 km/h (2 Bft)
15.08.2015 19:00 16,0 C 96 % 1009,5 hPa 0,0 l/m W-SW 0,00 h 17 W/m 8,0 km/h (2 Bft)
15.08.2015 20:00 15,6 C 96 % 1009,8 hPa 0,6 l/m W-SW 0,00 h 5 W/m 8,3 km/h (2 Bft)
15.08.2015 21:00 15,1 C 97 % 1010,3 hPa 0,4 l/m W 0,00 h 0 W/m 2,7 km/h (1 Bft)
15.08.2015 22:00 15,0 C 97 % 1010,4 hPa 0,0 l/m W 0,00 h 0 W/m 4,4 km/h (1 Bft)
15.08.2015 23:00 15,1 C 98 % 1010,6 hPa 1,0 l/m N 0,00 h 0 W/m 0,1 km/h (0 Bft)
16.08.2015 00:00 14,8 C 98 % 1010,5 hPa 1,0 l/m N 0,00 h 0 W/m 0,1 km/h (0 Bft)
16.08.2015 01:00 14,5 C 98 % 1010,3 hPa 0,8 l/m N 0,00 h 0 W/m 0,0 km/h (0 Bft)
16.08.2015 02:00 14,3 C 98 % 1009,8 hPa 0,4 l/m N 0,00 h 0 W/m 0,0 km/h (0 Bft)
16.08.2015 03:00 14,2 C 98 % 1009,5 hPa 0,4 l/m N 0,00 h 0 W/m 0,4 km/h (0 Bft)
16.08.2015 04:00 14,2 C 98 % 1009,3 hPa 0,4 l/m N 0,00 h 0 W/m 0,0 km/h (0 Bft)
16.08.2015 05:00 14,0 C 98 % 1009,1 hPa 1,0 l/m N 0,00 h 0 W/m 1,5 km/h (1 Bft)
16.08.2015 06:00 13,8 C 98 % 1009,0 hPa 0,6 l/m N 0,00 h 7 W/m 1,2 km/h (1 Bft)
16.08.2015 07:00 13,7 C 98 % 1009,1 hPa 0,4 l/m N 0,00 h 16 W/m 0,3 km/h (0 Bft)
16.08.2015 08:00 13,8 C 98 % 1009,5 hPa 1,0 l/m N 0,00 h 33 W/m 0,0 km/h (0 Bft)
16.08.2015 09:00 14,1 C 98 % 1009,6 hPa 1,4 l/m N 0,00 h 56 W/m 0,0 km/h (0 Bft)
16.08.2015 10:00 14,4 C 98 % 1009,7 hPa 1,2 l/m W 0,00 h 83 W/m 2,3 km/h (1 Bft)
16.08.2015 11:00 15,0 C 97 % 1009,7 hPa 0,4 l/m W-NW 0,00 h 197 W/m 8,3 km/h (2 Bft)
16.08.2015 12:00 15,6 C 95 % 1009,8 hPa 0,2 l/m NW 0,00 h 213 W/m 8,7 km/h (2 Bft)
16.08.2015 13:00 16,3 C 93 % 1009,9 hPa 0,2 l/m NW 0,00 h 286 W/m 9,4 km/h (2 Bft)
16.08.2015 14:00 16,5 C 91 % 1009,9 hPa 0,0 l/m NW 0,00 h 195 W/m 11,4 km/h (2 Bft)
16.08.2015 15:00 17,3 C 88 % 1009,8 hPa 0,0 l/m W-NW 0,08 h 252 W/m 11,2 km/h (2 Bft)
16.08.2015 16:00 18,1 C 84 % 1009,5 hPa 0,0 l/m NW 0,17 h 343 W/m 10,1 km/h (2 Bft)
16.08.2015 17:00 18,8 C 80 % 1009,3 hPa 0,0 l/m N 0,25 h 260 W/m 13,3 km/h (3 Bft)
16.08.2015 18:00 18,1 C 81 % 1009,4 hPa 0,0 l/m N-NW 0,08 h 116 W/m 12,4 km/h (3 Bft)
16.08.2015 19:00 17,2 C 84 % 1009,5 hPa 0,0 l/m N 0,00 h 54 W/m 10,5 km/h (2 Bft)
16.08.2015 20:00 16,5 C 88 % 1009,9 hPa 0,2 l/m N 0,00 h 8 W/m 4,0 km/h (1 Bft)
16.08.2015 21:00 15,7 C 91 % 1010,5 hPa 0,0 l/m N 0,00 h 0 W/m 7,0 km/h (2 Bft)
16.08.2015 22:00 15,0 C 91 % 1011,0 hPa 0,0 l/m N-NW 0,00 h 0 W/m 7,2 km/h (2 Bft)
16.08.2015 23:00 14,5 C 91 % 1010,9 hPa 0,0 l/m N-NW 0,00 h 0 W/m 1,6 km/h (1 Bft)
Min-Datum _ 16.08.15 13.08.15 14.08.15 - - - - 10.08.15
_ Min-Zeit 07:25 17:00 15:45 - - - - 00:55
Minimum _ 13,6 C 34 % 1004,9 hPa - - - - 0,0 km/h (0 Bft)
Max-Datum _ 13.08.15 10.08.15 12.08.15 15.08.15 - 10.08.15 15.08.15 13.08.15
_ Max-Zeit 16:55 05:10 10:00 17:30 - 06:20 12:15 22:40
Maximum _ 32,7 C 99 % 1016,4 hPa 5,4 l/m - 0,08 h 984 W/m 37,0 km/h
W-SW (5 Bft)
Durchschnitt _ 20,7 C 81 % 1010,7 hPa #21,8 l/m SW #40:05 h 278 W/m 4,8 km/h (1 Bft)